createdAt,value
2019-06-20T00:03:25.595Z,6.84
2019-06-20T00:08:31.758Z,4.32
2019-06-20T00:13:37.853Z,4.09
2019-06-20T00:18:43.828Z,6.56
2019-06-20T00:23:49.847Z,4.19
2019-06-20T00:28:55.829Z,4.04
2019-06-20T00:34:02.014Z,4.21
2019-06-20T00:39:08.047Z,4.07
2019-06-20T00:44:14.084Z,3.85
2019-06-20T00:49:20.020Z,3.93
2019-06-20T00:54:26.037Z,3.86
2019-06-20T00:59:31.987Z,3.62
2019-06-20T01:04:37.994Z,3.76
2019-06-20T01:09:43.969Z,3.59
2019-06-20T01:14:49.994Z,5.38
2019-06-20T01:19:58.222Z,3.71
2019-06-20T01:25:01.619Z,3.53
2019-06-20T01:30:07.560Z,5.26
2019-06-20T01:35:13.583Z,3.46
2019-06-20T01:40:19.576Z,5.06
2019-06-20T01:45:25.620Z,3.41
2019-06-20T01:50:31.590Z,5.14
2019-06-20T01:55:37.661Z,5.37
2019-06-20T02:00:43.651Z,5.07
2019-06-20T02:05:49.740Z,4.57
2019-06-20T02:10:55.755Z,3.30
2019-06-20T02:16:01.752Z,3.31
2019-06-20T02:21:07.727Z,3.29
2019-06-20T02:26:13.698Z,2.89
2019-06-20T02:31:19.678Z,1.68
2019-06-20T02:36:25.703Z,2.00
2019-06-20T02:41:31.733Z,2.22
2019-06-20T02:46:37.733Z,3.12
2019-06-20T02:51:43.743Z,2.32
2019-06-20T02:56:49.813Z,2.10
2019-06-20T03:01:55.846Z,1.96
2019-06-20T03:07:01.839Z,1.71
2019-06-20T03:12:07.902Z,2.11
2019-06-20T03:17:13.910Z,2.30
2019-06-20T03:22:19.904Z,2.25
2019-06-20T03:27:25.877Z,2.08
2019-06-20T03:32:31.927Z,2.36
2019-06-20T03:37:37.902Z,2.07
2019-06-20T03:42:43.879Z,2.06
2019-06-20T03:47:49.890Z,1.90
2019-06-20T03:52:57.470Z,1.94
2019-06-20T03:58:03.464Z,1.77
2019-06-20T04:03:09.486Z,1.89
2019-06-20T04:08:15.482Z,1.91
2019-06-20T04:13:21.510Z,1.79
2019-06-20T04:18:27.542Z,2.89
2019-06-20T04:23:33.555Z,2.17
2019-06-20T04:28:39.686Z,3.20
2019-06-20T04:33:45.661Z,2.19
2019-06-20T04:38:51.633Z,2.06
2019-06-20T04:43:57.653Z,2.36
2019-06-20T04:49:03.736Z,2.75
2019-06-20T04:54:09.724Z,4.85
2019-06-20T04:59:15.808Z,3.84
2019-06-20T05:04:21.829Z,6.32
2019-06-20T05:09:27.865Z,4.00
2019-06-20T05:14:33.905Z,5.32
2019-06-20T05:19:39.928Z,7.70
2019-06-20T05:24:45.950Z,5.03
2019-06-20T05:29:51.957Z,4.77
2019-06-20T05:34:57.948Z,4.54
2019-06-20T05:40:03.980Z,4.13
2019-06-20T05:45:10.027Z,5.82
2019-06-20T05:50:16.045Z,3.64
2019-06-20T05:55:22.083Z,5.54
2019-06-20T06:00:28.153Z,3.25
2019-06-20T06:05:34.160Z,2.87
2019-06-20T06:10:41.303Z,3.98
2019-06-20T06:15:45.983Z,3.38
2019-06-20T06:20:52.060Z,2.15
2019-06-20T06:25:58.075Z,2.15
2019-06-20T06:31:04.295Z,1.99
2019-06-20T06:36:10.526Z,1.99
2019-06-20T06:41:16.625Z,1.84
2019-06-20T06:46:22.745Z,1.74
2019-06-20T06:51:28.725Z,1.74
2019-06-20T06:56:34.802Z,1.47
2019-06-20T07:01:40.924Z,1.49
2019-06-20T07:06:47.343Z,1.44
2019-06-20T07:11:53.337Z,1.45
2019-06-20T07:17:00.321Z,2.21
2019-06-20T07:22:04.937Z,1.46
2019-06-20T07:27:11.180Z,1.51
2019-06-20T07:32:17.950Z,1.53
2019-06-20T07:37:24.049Z,1.32
2019-06-20T07:42:30.193Z,2.00
2019-06-20T07:47:36.184Z,1.37
2019-06-20T07:52:42.207Z,1.59
2019-06-20T07:57:48.221Z,2.18
2019-06-20T08:02:54.279Z,2.64
2019-06-20T08:08:00.930Z,2.66
2019-06-20T08:13:07.026Z,2.42
2019-06-20T08:18:13.006Z,2.96
2019-06-20T08:23:18.997Z,2.66
2019-06-20T08:28:25.057Z,2.70
2019-06-20T08:33:31.170Z,2.48
2019-06-20T08:38:37.209Z,2.21
2019-06-20T08:43:43.216Z,2.48
2019-06-20T08:48:49.341Z,2.81
2019-06-20T08:53:56.316Z,2.41
2019-06-20T08:59:04.850Z,2.22
2019-06-20T09:04:09.653Z,2.23
2019-06-20T09:09:15.669Z,2.67
2019-06-20T09:14:21.851Z,1.98
2019-06-20T09:19:28.041Z,1.99
2019-06-20T09:24:35.381Z,1.78
2019-06-20T09:29:42.143Z,1.86
2019-06-20T09:34:47.026Z,1.89
2019-06-20T09:39:53.168Z,1.56
2019-06-20T09:44:59.047Z,1.61
2019-06-20T09:50:05.069Z,1.57
2019-06-20T09:55:11.227Z,1.47
2019-06-20T10:00:17.443Z,2.02
2019-06-20T10:05:23.454Z,1.60
2019-06-20T10:10:29.916Z,2.01
2019-06-20T10:15:35.975Z,1.92
2019-06-20T10:20:42.018Z,1.82
2019-06-20T10:25:49.224Z,1.68
2019-06-20T10:30:53.731Z,1.77
2019-06-20T10:35:59.764Z,1.78
2019-06-20T10:41:05.771Z,1.60
2019-06-20T10:46:11.927Z,1.90
2019-06-20T10:51:17.916Z,2.02
2019-06-20T10:56:23.989Z,1.85
2019-06-20T11:01:30.053Z,1.44
2019-06-20T11:06:36.109Z,1.34
2019-06-20T11:11:43.042Z,1.81
2019-06-20T11:16:49.204Z,1.58
2019-06-20T11:21:53.517Z,2.05
2019-06-20T11:26:59.491Z,1.57
2019-06-20T11:32:05.510Z,1.60
2019-06-20T11:37:11.702Z,1.80
2019-06-20T11:42:17.814Z,1.96
2019-06-20T11:47:23.863Z,1.66
2019-06-20T11:52:35.262Z,1.95
2019-06-20T11:57:35.539Z,1.55
2019-06-20T12:02:42.774Z,1.93
2019-06-20T12:07:47.897Z,1.61
2019-06-20T12:12:52.817Z,2.01
2019-06-20T12:17:58.907Z,1.63
2019-06-20T12:23:04.956Z,1.76
2019-06-20T12:28:11.020Z,1.70
2019-06-20T12:33:17.095Z,2.00
2019-06-20T12:38:23.090Z,1.97
2019-06-20T12:43:29.155Z,2.07
2019-06-20T12:48:35.172Z,1.98
2019-06-20T12:53:41.956Z,1.62
2019-06-20T12:58:46.783Z,1.98
2019-06-20T13:03:52.747Z,1.92
2019-06-20T13:08:58.788Z,2.06
2019-06-20T13:14:04.970Z,1.75
2019-06-20T13:19:11.108Z,2.17
2019-06-20T13:24:17.149Z,2.03
2019-06-20T13:29:23.199Z,1.86
2019-06-20T13:34:29.199Z,1.11
2019-06-20T13:39:35.172Z,1.80
2019-06-20T13:44:42.560Z,3.59
2019-06-20T13:49:47.714Z,3.20
2019-06-20T13:54:52.603Z,4.57
2019-06-20T13:59:58.666Z,5.41
2019-06-20T14:05:04.760Z,8.39
2019-06-20T14:10:11.365Z,6.10
2019-06-20T14:15:17.789Z,5.97
2019-06-20T14:20:24.157Z,6.12
2019-06-20T14:25:33.541Z,5.86
2019-06-20T14:30:36.718Z,6.06
2019-06-20T14:35:44.002Z,6.16
2019-06-20T14:40:49.967Z,6.09
2019-06-20T14:45:56.415Z,6.42
2019-06-20T14:51:00.248Z,6.44
2019-06-20T14:56:06.289Z,6.58
2019-06-20T15:01:12.288Z,6.64
2019-06-20T15:06:18.426Z,6.96
2019-06-20T15:11:24.577Z,7.38
2019-06-20T15:16:31.390Z,5.07
2019-06-20T15:21:37.451Z,4.23
2019-06-20T15:26:45.844Z,4.36
2019-06-20T15:31:52.557Z,4.19
2019-06-20T15:36:57.799Z,3.78
2019-06-20T15:42:03.042Z,3.26
2019-06-20T15:47:09.093Z,3.42
2019-06-20T15:52:15.238Z,3.79
2019-06-20T15:57:22.705Z,3.70
2019-06-20T16:02:29.384Z,5.28
2019-06-20T16:07:35.452Z,3.61
2019-06-20T16:12:46.286Z,3.74
2019-06-20T16:17:42.408Z,3.99
2019-06-20T16:22:48.469Z,5.90
2019-06-20T16:27:54.482Z,4.03
2019-06-20T16:33:00.551Z,4.18
2019-06-20T16:38:06.602Z,4.65
2019-06-20T16:43:12.693Z,5.07
2019-06-20T16:48:19.849Z,6.99
2019-06-20T16:53:26.350Z,4.97
2019-06-20T16:58:32.536Z,5.06
2019-06-20T17:03:42.055Z,4.03
2019-06-20T17:08:49.829Z,4.18
2019-06-20T17:13:46.238Z,4.01
2019-06-20T17:18:52.276Z,3.65
2019-06-20T17:23:58.471Z,3.54
2019-06-20T17:29:04.714Z,3.00
2019-06-20T17:34:10.742Z,4.63
2019-06-20T17:39:16.753Z,3.74
2019-06-20T17:44:22.898Z,3.49
2019-06-20T17:49:29.029Z,3.89
2019-06-20T17:54:35.069Z,5.89
2019-06-20T17:59:41.238Z,3.81
2019-06-20T18:04:47.289Z,3.78
2019-06-20T18:09:54.053Z,3.47
2019-06-20T18:15:00.077Z,5.29
2019-06-20T18:20:06.235Z,3.78
2019-06-20T18:25:12.276Z,3.65
2019-06-20T18:30:18.342Z,5.05
2019-06-20T18:35:24.424Z,4.60
2019-06-20T18:40:30.509Z,3.22
2019-06-20T18:45:36.519Z,4.39
2019-06-20T18:50:42.582Z,3.52
2019-06-20T18:55:48.665Z,2.95
2019-06-20T19:00:54.702Z,3.17
2019-06-20T19:06:00.720Z,4.89
2019-06-20T19:11:06.828Z,3.03
2019-06-20T19:16:12.858Z,3.39
2019-06-20T19:21:18.959Z,3.29
2019-06-20T19:26:25.025Z,3.57
2019-06-20T19:31:31.090Z,3.57
2019-06-20T19:36:37.126Z,3.52
2019-06-20T19:41:43.274Z,3.55
2019-06-20T19:46:49.323Z,3.53
2019-06-20T19:51:55.473Z,3.43
2019-06-20T19:57:01.551Z,5.83
2019-06-20T20:02:07.606Z,6.24
2019-06-20T20:07:13.749Z,4.09
2019-06-20T20:12:19.872Z,3.93
2019-06-20T20:17:26.016Z,6.25
2019-06-20T20:22:32.108Z,3.77
2019-06-20T20:27:38.186Z,3.87
2019-06-20T20:32:44.416Z,3.76
2019-06-20T20:37:50.497Z,3.68
2019-06-20T20:42:56.627Z,3.56
2019-06-20T20:48:02.689Z,3.91
2019-06-20T20:53:08.744Z,4.21
2019-06-20T20:58:15.031Z,3.99
2019-06-20T21:03:21.122Z,4.15
2019-06-20T21:08:27.260Z,3.64
2019-06-20T21:13:33.547Z,3.96
2019-06-20T21:18:39.577Z,3.97
2019-06-20T21:23:45.749Z,5.63
2019-06-20T21:28:51.862Z,3.94
2019-06-20T21:33:57.921Z,3.84
2019-06-20T21:39:03.977Z,5.93
2019-06-20T21:44:10.077Z,6.48
2019-06-20T21:49:16.383Z,4.13
2019-06-20T21:54:22.528Z,4.10
2019-06-20T21:59:29.076Z,6.02
2019-06-20T22:04:35.657Z,4.14
2019-06-20T22:09:41.804Z,3.91
2019-06-20T22:14:47.959Z,3.94
2019-06-20T22:19:53.954Z,4.08
2019-06-20T22:25:00.024Z,3.86
2019-06-20T22:30:06.184Z,3.81
2019-06-20T22:35:12.245Z,5.98
2019-06-20T22:40:18.503Z,3.98
2019-06-20T22:45:24.550Z,4.39
2019-06-20T22:50:30.623Z,4.27
2019-06-20T22:55:36.826Z,4.11
2019-06-20T23:00:42.892Z,3.93
2019-06-20T23:05:48.945Z,4.09
2019-06-20T23:10:55.008Z,3.77
2019-06-20T23:16:01.026Z,4.23
2019-06-20T23:21:07.073Z,4.12
2019-06-20T23:26:13.250Z,4.17
2019-06-20T23:31:19.306Z,4.49
2019-06-20T23:36:25.351Z,4.53
2019-06-20T23:41:31.473Z,5.03
2019-06-20T23:46:37.640Z,4.35
2019-06-20T23:51:43.723Z,4.38
2019-06-20T23:56:49.771Z,4.19
